createdAt,value
2017-05-22T00:02:49.491Z,1019.36
2017-05-22T00:03:49.429Z,1019.36
2017-05-22T00:04:49.368Z,1019.33
2017-05-22T00:05:49.307Z,1019.32
2017-05-22T00:06:49.243Z,1019.37
2017-05-22T00:07:49.183Z,1019.34
2017-05-22T00:08:49.121Z,1019.38
2017-05-22T00:09:49.061Z,1019.36
2017-05-22T00:10:48.996Z,1019.34
2017-05-22T00:11:48.937Z,1019.36
2017-05-22T00:12:48.877Z,1019.37
2017-05-22T00:13:48.813Z,1019.37
2017-05-22T00:14:48.752Z,1019.35
2017-05-22T00:15:48.693Z,1019.35
2017-05-22T00:16:48.628Z,1019.36
2017-05-22T00:17:48.566Z,1019.4
2017-05-22T00:18:48.505Z,1019.36
2017-05-22T00:19:48.443Z,1019.37
2017-05-22T00:20:48.389Z,1019.34
2017-05-22T00:21:48.318Z,1019.34
2017-05-22T00:22:48.259Z,1019.33
2017-05-22T00:23:48.197Z,1019.37
2017-05-22T00:24:48.135Z,1019.34
2017-05-22T00:25:48.073Z,1019.39
2017-05-22T00:26:48.012Z,1019.38
2017-05-22T00:27:47.951Z,1019.33
2017-05-22T00:28:47.901Z,1019.33
2017-05-22T00:29:47.827Z,1019.31
2017-05-22T00:30:47.766Z,1019.31
2017-05-22T00:31:47.703Z,1019.32
2017-05-22T00:32:47.642Z,1019.32
2017-05-22T00:33:47.580Z,1019.31
2017-05-22T00:34:47.519Z,1019.34
2017-05-22T00:35:47.457Z,1019.28
2017-05-22T00:36:47.395Z,1019.31
2017-05-22T00:37:47.335Z,1019.34
2017-05-22T00:38:47.271Z,1019.31
2017-05-22T00:39:47.211Z,1019.26
2017-05-22T00:40:47.151Z,1019.25
2017-05-22T00:41:47.088Z,1019.25
2017-05-22T00:42:47.026Z,1019.25
2017-05-22T00:43:46.965Z,1019.28
2017-05-22T00:44:46.902Z,1019.25
2017-05-22T00:45:46.840Z,1019.3
2017-05-22T00:46:46.778Z,1019.27
2017-05-22T00:47:46.717Z,1019.3
2017-05-22T00:48:46.657Z,1019.32
2017-05-22T00:49:46.595Z,1019.29
2017-05-22T00:50:46.532Z,1019.3
2017-05-22T00:51:46.471Z,1019.29
2017-05-22T00:52:46.410Z,1019.29
2017-05-22T00:53:46.349Z,1019.3
2017-05-22T00:54:46.286Z,1019.29
2017-05-22T00:55:46.227Z,1019.27
2017-05-22T00:56:46.162Z,1019.3
2017-05-22T00:57:46.101Z,1019.28
2017-05-22T00:58:46.039Z,1019.26
2017-05-22T00:59:45.978Z,1019.31
2017-05-22T01:00:45.919Z,1019.29
2017-05-22T01:01:45.853Z,1019.28
2017-05-22T01:02:45.792Z,1019.28
2017-05-22T01:03:45.731Z,1019.26
2017-05-22T01:04:45.669Z,1019.25
2017-05-22T01:05:45.607Z,1019.26
2017-05-22T01:06:45.546Z,1019.25
2017-05-22T01:07:45.485Z,1019.26
2017-05-22T01:08:45.423Z,1019.29
2017-05-22T01:09:45.361Z,1019.29
2017-05-22T01:10:45.299Z,1019.3
2017-05-22T01:11:45.237Z,1019.29
2017-05-22T01:12:45.175Z,1019.28
2017-05-22T01:13:45.114Z,1019.29
2017-05-22T01:14:45.053Z,1019.32
2017-05-22T01:15:44.990Z,1019.32
2017-05-22T01:16:44.929Z,1019.3
2017-05-22T01:17:44.868Z,1019.3
2017-05-22T01:18:44.806Z,1019.3
2017-05-22T01:19:44.743Z,1019.28
2017-05-22T01:20:44.682Z,1019.27
2017-05-22T01:21:44.622Z,1019.29
2017-05-22T01:22:44.559Z,1019.29
2017-05-22T01:23:44.497Z,1019.24
2017-05-22T01:24:44.435Z,1019.27
2017-05-22T01:25:44.374Z,1019.26
2017-05-22T01:26:44.313Z,1019.28
2017-05-22T01:27:44.251Z,1019.28
2017-05-22T01:28:44.189Z,1019.28
2017-05-22T01:29:44.132Z,1019.28
2017-05-22T01:30:44.065Z,1019.28
2017-05-22T01:31:44.003Z,1019.26
2017-05-22T01:32:43.942Z,1019.25
2017-05-22T01:33:43.880Z,1019.27
2017-05-22T01:34:43.818Z,1019.25
2017-05-22T01:35:43.756Z,1019.22
2017-05-22T01:36:43.697Z,1019.24
2017-05-22T01:37:43.634Z,1019.26
2017-05-22T01:38:43.572Z,1019.23
2017-05-22T01:39:43.509Z,1019.22
2017-05-22T01:40:43.448Z,1019.24
2017-05-22T01:41:43.386Z,1019.27
2017-05-22T01:42:43.325Z,1019.23
2017-05-22T01:43:43.273Z,1019.2
2017-05-22T01:44:43.212Z,1019.21
2017-05-22T01:45:43.140Z,1019.23
2017-05-22T01:46:43.078Z,1019.23
2017-05-22T01:47:43.017Z,1019.21
2017-05-22T01:48:42.954Z,1019.23
2017-05-22T01:49:42.893Z,1019.22
2017-05-22T01:50:42.830Z,1019.22
2017-05-22T01:51:42.768Z,1019.23
2017-05-22T01:52:42.708Z,1019.21
2017-05-22T01:53:42.646Z,1019.21
2017-05-22T01:54:42.586Z,1019.21
2017-05-22T01:55:42.522Z,1019.21
2017-05-22T01:56:42.460Z,1019.2
2017-05-22T01:57:42.400Z,1019.2
2017-05-22T01:58:42.337Z,1019.19
2017-05-22T01:59:42.277Z,1019.18
2017-05-22T02:00:42.215Z,1019.16
2017-05-22T02:01:42.153Z,1019.18
2017-05-22T02:02:42.092Z,1019.17
2017-05-22T02:03:42.028Z,1019.17
2017-05-22T02:04:41.967Z,1019.19
2017-05-22T02:05:41.907Z,1019.2
2017-05-22T02:06:41.845Z,1019.2
2017-05-22T02:07:41.782Z,1019.19
2017-05-22T02:08:41.720Z,1019.17
2017-05-22T02:09:41.659Z,1019.16
2017-05-22T02:10:41.597Z,1019.14
2017-05-22T02:11:41.537Z,1019.14
2017-05-22T02:12:41.474Z,1019.11
2017-05-22T02:13:41.413Z,1019.12
2017-05-22T02:14:41.350Z,1019.13
2017-05-22T02:15:41.291Z,1019.13
2017-05-22T02:16:41.228Z,1019.08
2017-05-22T02:17:41.166Z,1019.06
2017-05-22T02:18:41.104Z,1019.07
2017-05-22T02:19:41.042Z,1019.08
2017-05-22T02:20:40.980Z,1019.07
2017-05-22T02:21:40.919Z,1019.07
2017-05-22T02:22:40.857Z,1019.07
2017-05-22T02:23:40.796Z,1019.09
2017-05-22T02:24:40.734Z,1019.07
2017-05-22T02:25:40.671Z,1019.08
2017-05-22T02:26:40.610Z,1019.11
2017-05-22T02:27:40.548Z,1019.11
2017-05-22T02:28:40.486Z,1019.05
2017-05-22T02:29:40.424Z,1019.07
2017-05-22T02:30:40.363Z,1019.05
2017-05-22T02:31:40.300Z,1019.06
2017-05-22T02:32:40.239Z,1019.05
2017-05-22T02:33:40.178Z,1019.01
2017-05-22T02:34:40.116Z,1018.99
2017-05-22T02:35:40.055Z,1019.01
2017-05-22T02:36:39.991Z,1018.99
2017-05-22T02:37:39.930Z,1019
2017-05-22T02:38:39.869Z,1018.97
2017-05-22T02:39:39.807Z,1018.97
2017-05-22T02:40:39.744Z,1018.95
2017-05-22T02:41:39.685Z,1018.97
2017-05-22T02:42:39.621Z,1018.98
2017-05-22T02:43:39.560Z,1018.97
2017-05-22T02:44:39.500Z,1018.99
2017-05-22T02:45:39.437Z,1019
2017-05-22T02:46:39.375Z,1018.99
2017-05-22T02:47:39.313Z,1019
2017-05-22T02:48:39.251Z,1018.99
2017-05-22T02:49:39.190Z,1018.99
2017-05-22T02:50:39.127Z,1018.98
2017-05-22T02:51:39.065Z,1019
2017-05-22T02:52:39.004Z,1019.02
2017-05-22T02:53:38.941Z,1019
2017-05-22T02:54:38.883Z,1018.98
2017-05-22T02:55:38.819Z,1019
2017-05-22T02:56:38.757Z,1019.02
2017-05-22T02:57:38.694Z,1018.98
2017-05-22T02:58:38.635Z,1018.96
2017-05-22T02:59:38.574Z,1018.97
2017-05-22T03:00:38.521Z,1018.95
2017-05-22T03:01:38.448Z,1018.98
2017-05-22T03:02:39.649Z,1018.96
2017-05-22T03:03:38.325Z,1019
2017-05-22T03:04:38.263Z,1019
2017-05-22T03:05:38.202Z,1018.98
2017-05-22T03:06:38.140Z,1018.97
2017-05-22T03:07:38.080Z,1018.99
2017-05-22T03:08:38.015Z,1018.99
2017-05-22T03:09:37.953Z,1019.01
2017-05-22T03:10:37.893Z,1019.01
2017-05-22T03:11:37.831Z,1018.99
2017-05-22T03:12:37.769Z,1019.01
2017-05-22T03:13:37.708Z,1018.94
2017-05-22T03:14:37.645Z,1018.95
2017-05-22T03:15:37.583Z,1018.99
2017-05-22T03:16:37.520Z,1018.93
2017-05-22T03:17:37.459Z,1018.93
2017-05-22T03:18:37.400Z,1018.94
2017-05-22T03:19:37.336Z,1018.92
2017-05-22T03:20:37.274Z,1018.96
2017-05-22T03:21:37.212Z,1018.95
2017-05-22T03:22:37.151Z,1018.95
2017-05-22T03:23:37.088Z,1018.94
2017-05-22T03:24:37.027Z,1018.97
2017-05-22T03:25:36.965Z,1018.95
2017-05-22T03:26:36.903Z,1018.93
2017-05-22T03:27:36.842Z,1018.96
2017-05-22T03:28:36.780Z,1018.91
2017-05-22T03:29:36.720Z,1018.94
2017-05-22T03:30:36.657Z,1018.91
2017-05-22T03:31:36.595Z,1018.93
2017-05-22T03:32:36.533Z,1018.91
2017-05-22T03:33:36.471Z,1018.93
2017-05-22T03:34:36.409Z,1018.91
2017-05-22T03:35:36.348Z,1018.89
2017-05-22T03:36:36.286Z,1018.92
2017-05-22T03:37:36.224Z,1018.92
2017-05-22T03:38:36.162Z,1018.93
2017-05-22T03:39:36.100Z,1018.96
2017-05-22T03:40:36.038Z,1018.98
2017-05-22T03:41:35.977Z,1018.97
2017-05-22T03:42:35.914Z,1018.97
2017-05-22T03:43:35.854Z,1018.95
2017-05-22T03:44:35.791Z,1018.99
2017-05-22T03:45:35.730Z,1018.99
2017-05-22T03:46:35.670Z,1018.97
2017-05-22T03:47:35.615Z,1018.98
2017-05-22T03:48:35.543Z,1018.99
2017-05-22T03:49:35.482Z,1018.97
2017-05-22T03:50:35.421Z,1019
2017-05-22T03:51:35.359Z,1018.99
2017-05-22T03:52:35.298Z,1018.97
2017-05-22T03:53:35.235Z,1018.98
2017-05-22T03:54:35.174Z,1018.99
2017-05-22T03:55:35.111Z,1018.96
2017-05-22T03:56:35.050Z,1018.97
2017-05-22T03:57:34.988Z,1019.01
2017-05-22T03:58:34.926Z,1019.02
2017-05-22T03:59:34.866Z,1019
2017-05-22T04:00:34.803Z,1019.02
2017-05-22T04:01:34.740Z,1019.04
2017-05-22T04:02:34.681Z,1019.03
2017-05-22T04:03:34.617Z,1019.04
2017-05-22T04:04:34.556Z,1019.04
2017-05-22T04:05:34.494Z,1019.04
2017-05-22T04:06:34.432Z,1019.03
2017-05-22T04:07:34.368Z,1019.06
2017-05-22T04:08:34.309Z,1019.05
2017-05-22T04:09:34.249Z,1019.07
2017-05-22T04:10:34.183Z,1019.03
2017-05-22T04:11:34.123Z,1019.03
2017-05-22T04:12:34.060Z,1019.05
2017-05-22T04:13:34.001Z,1019.07
2017-05-22T04:14:33.936Z,1019.07
2017-05-22T04:15:33.876Z,1019.02
2017-05-22T04:16:33.813Z,1019.05
2017-05-22T04:17:33.751Z,1019.02
2017-05-22T04:18:33.691Z,1019.03
2017-05-22T04:19:33.628Z,1019.01
2017-05-22T04:20:33.567Z,1019.02
2017-05-22T04:21:33.504Z,1019.02
2017-05-22T04:22:33.442Z,1018.99
2017-05-22T04:23:33.380Z,1019.01
2017-05-22T04:24:33.320Z,1019
2017-05-22T04:25:33.256Z,1019.01
2017-05-22T04:26:33.194Z,1019.02
2017-05-22T04:27:33.134Z,1019
2017-05-22T04:28:33.071Z,1019.03
2017-05-22T04:29:33.010Z,1019
2017-05-22T04:30:32.947Z,1019.03
2017-05-22T04:31:32.886Z,1019.02
2017-05-22T04:32:32.825Z,1019.02
2017-05-22T04:33:32.763Z,1019.03
2017-05-22T04:34:32.700Z,1019.02
2017-05-22T04:35:32.639Z,1019.06
2017-05-22T04:36:32.576Z,1019.08
2017-05-22T04:37:32.514Z,1019.06
2017-05-22T04:38:32.452Z,1019.09
2017-05-22T04:39:32.391Z,1019.06
2017-05-22T04:40:32.328Z,1019.1
2017-05-22T04:41:32.267Z,1019.07
2017-05-22T04:42:32.207Z,1019.08
2017-05-22T04:43:32.141Z,1019.07
2017-05-22T04:44:32.081Z,1019.04
2017-05-22T04:45:32.018Z,1019.09
2017-05-22T04:46:31.958Z,1019.05
2017-05-22T04:47:31.896Z,1019.06
2017-05-22T04:48:31.834Z,1019.06
2017-05-22T04:49:31.773Z,1019.05
2017-05-22T04:50:31.709Z,1019.07
2017-05-22T04:51:31.648Z,1019.02
2017-05-22T04:52:31.587Z,1019.04
2017-05-22T04:53:31.524Z,1019.03
2017-05-22T04:54:31.462Z,1019
2017-05-22T04:55:31.400Z,1019.02
2017-05-22T04:56:31.340Z,1019.03
2017-05-22T04:57:31.277Z,1019.02
2017-05-22T04:58:31.216Z,1019.02
2017-05-22T04:59:31.153Z,1018.98
2017-05-22T05:00:31.092Z,1018.96
2017-05-22T05:01:31.028Z,1018.95
2017-05-22T05:02:30.968Z,1018.94
2017-05-22T05:03:30.906Z,1018.97
2017-05-22T05:04:30.844Z,1019
2017-05-22T05:05:30.782Z,1018.95
2017-05-22T05:06:30.721Z,1018.96
2017-05-22T05:07:30.658Z,1018.93
2017-05-22T05:08:30.597Z,1018.96
2017-05-22T05:09:30.534Z,1018.95
2017-05-22T05:10:30.474Z,1018.94
2017-05-22T05:11:30.411Z,1018.9
2017-05-22T05:12:30.349Z,1018.91
2017-05-22T05:13:30.286Z,1018.9
2017-05-22T05:14:30.225Z,1018.93
2017-05-22T05:15:30.164Z,1018.87
2017-05-22T05:16:30.102Z,1018.88
2017-05-22T05:17:30.038Z,1018.85
2017-05-22T05:18:29.979Z,1018.87
2017-05-22T05:19:29.916Z,1018.85
2017-05-22T05:20:29.855Z,1018.86
2017-05-22T05:21:29.792Z,1018.84
2017-05-22T05:22:29.732Z,1018.81
2017-05-22T05:23:29.669Z,1018.83
2017-05-22T05:24:29.607Z,1018.8
2017-05-22T05:25:29.545Z,1018.82
2017-05-22T05:26:29.484Z,1018.81
2017-05-22T05:27:29.422Z,1018.8
2017-05-22T05:28:29.359Z,1018.79
2017-05-22T05:29:29.298Z,1018.82
2017-05-22T05:30:29.235Z,1018.77
2017-05-22T05:31:29.174Z,1018.8
2017-05-22T05:32:29.111Z,1018.77
2017-05-22T05:33:29.050Z,1018.77
2017-05-22T05:34:28.988Z,1018.77
2017-05-22T05:35:28.926Z,1018.74
2017-05-22T05:36:28.863Z,1018.77
2017-05-22T05:37:28.803Z,1018.77
2017-05-22T05:38:28.740Z,1018.79
2017-05-22T05:39:28.678Z,1018.78
2017-05-22T05:40:28.616Z,1018.8
2017-05-22T05:41:28.555Z,1018.76
2017-05-22T05:42:28.493Z,1018.73
2017-05-22T05:43:28.434Z,1018.73
2017-05-22T05:44:28.369Z,1018.76
2017-05-22T05:45:28.307Z,1018.74
2017-05-22T05:46:28.246Z,1018.75
2017-05-22T05:47:28.187Z,1018.71
2017-05-22T05:48:28.122Z,1018.75
2017-05-22T05:49:28.060Z,1018.71
2017-05-22T05:50:27.998Z,1018.7
2017-05-22T05:51:27.936Z,1018.7
2017-05-22T05:52:27.873Z,1018.68
2017-05-22T05:53:27.811Z,1018.67
2017-05-22T05:54:27.750Z,1018.68
2017-05-22T05:55:27.689Z,1018.7
2017-05-22T05:56:27.625Z,1018.7
2017-05-22T05:57:27.564Z,1018.71
2017-05-22T05:58:27.503Z,1018.7
2017-05-22T05:59:27.442Z,1018.7
2017-05-22T06:00:27.378Z,1018.7
2017-05-22T06:01:27.317Z,1018.69
2017-05-22T06:02:27.254Z,1018.7
2017-05-22T06:03:27.193Z,1018.69
2017-05-22T06:04:27.130Z,1018.69
2017-05-22T06:05:27.069Z,1018.67
2017-05-22T06:06:27.007Z,1018.64
2017-05-22T06:07:26.946Z,1018.69
2017-05-22T06:08:26.882Z,1018.68
2017-05-22T06:09:26.821Z,1018.69
2017-05-22T06:10:26.759Z,1018.72
2017-05-22T06:11:26.697Z,1018.69
2017-05-22T06:12:26.635Z,1018.72
2017-05-22T06:13:26.575Z,1018.68
2017-05-22T06:14:26.509Z,1018.67
2017-05-22T06:15:26.449Z,1018.65
2017-05-22T06:16:26.390Z,1018.68
2017-05-22T06:17:26.326Z,1018.66
2017-05-22T06:18:26.264Z,1018.68
2017-05-22T06:19:26.200Z,1018.68
2017-05-22T06:20:26.140Z,1018.65
2017-05-22T06:21:26.080Z,1018.69
2017-05-22T06:22:26.015Z,1018.7
2017-05-22T06:23:25.953Z,1018.65
2017-05-22T06:24:25.892Z,1018.69
2017-05-22T06:25:25.830Z,1018.71
2017-05-22T06:26:25.767Z,1018.69
2017-05-22T06:27:25.705Z,1018.69
2017-05-22T06:28:25.644Z,1018.66
2017-05-22T06:29:25.582Z,1018.65
2017-05-22T06:30:25.520Z,1018.66
2017-05-22T06:31:25.458Z,1018.64
2017-05-22T06:32:25.396Z,1018.62
2017-05-22T06:33:25.334Z,1018.64
2017-05-22T06:34:25.273Z,1018.63
2017-05-22T06:35:25.209Z,1018.61
2017-05-22T06:36:25.147Z,1018.6
2017-05-22T06:37:25.087Z,1018.63
2017-05-22T06:38:25.023Z,1018.63
2017-05-22T06:39:24.962Z,1018.6
2017-05-22T06:40:24.900Z,1018.62
2017-05-22T06:41:24.838Z,1018.64
2017-05-22T06:42:24.776Z,1018.61
2017-05-22T06:43:24.715Z,1018.58
2017-05-22T06:44:24.651Z,1018.63
2017-05-22T06:45:24.591Z,1018.63
2017-05-22T06:46:24.529Z,1018.61
2017-05-22T06:47:24.466Z,1018.61
2017-05-22T06:48:24.403Z,1018.64
2017-05-22T06:49:24.343Z,1018.62
2017-05-22T06:50:24.284Z,1018.6
2017-05-22T06:51:24.218Z,1018.57
2017-05-22T06:52:24.157Z,1018.6
2017-05-22T06:53:24.095Z,1018.57
2017-05-22T06:54:24.033Z,1018.57
2017-05-22T06:55:23.972Z,1018.6
2017-05-22T06:56:23.909Z,1018.56
2017-05-22T06:57:23.851Z,1018.57
2017-05-22T06:58:23.785Z,1018.57
2017-05-22T06:59:23.724Z,1018.55
2017-05-22T07:00:23.762Z,1018.56
2017-05-22T07:01:23.600Z,1018.52
2017-05-22T07:02:23.540Z,1018.55
2017-05-22T07:03:23.475Z,1018.55
2017-05-22T07:04:23.414Z,1018.56
2017-05-22T07:05:23.604Z,1018.56
2017-05-22T07:06:23.290Z,1018.59
2017-05-22T07:07:23.229Z,1018.58
2017-05-22T07:08:23.166Z,1018.56
2017-05-22T07:09:23.105Z,1018.56
2017-05-22T07:10:23.043Z,1018.59
2017-05-22T07:11:22.981Z,1018.59
2017-05-22T07:12:22.919Z,1018.62
2017-05-22T07:13:22.856Z,1018.63
2017-05-22T07:14:22.794Z,1018.62
2017-05-22T07:15:22.731Z,1018.63
2017-05-22T07:16:22.669Z,1018.6
2017-05-22T07:17:22.609Z,1018.58
2017-05-22T07:18:22.546Z,1018.6
2017-05-22T07:19:22.485Z,1018.58
2017-05-22T07:20:22.422Z,1018.56
2017-05-22T07:21:22.410Z,1018.55
2017-05-22T07:22:22.337Z,1018.6
2017-05-22T07:23:22.239Z,1018.55
2017-05-22T07:24:22.175Z,1018.55
2017-05-22T07:25:22.112Z,1018.52
2017-05-22T07:26:22.054Z,1018.5
2017-05-22T07:27:21.988Z,1018.48
2017-05-22T07:28:21.938Z,1018.45
2017-05-22T07:29:21.866Z,1018.5
2017-05-22T07:30:21.803Z,1018.49
2017-05-22T07:31:21.740Z,1018.47
2017-05-22T07:32:21.678Z,1018.45
2017-05-22T07:33:21.631Z,1018.44
2017-05-22T07:34:21.555Z,1018.43
2017-05-22T07:35:21.491Z,1018.42
2017-05-22T07:36:21.431Z,1018.4
2017-05-22T07:37:21.369Z,1018.44
2017-05-22T07:38:21.307Z,1018.42
2017-05-22T07:39:21.244Z,1018.41
2017-05-22T07:40:21.183Z,1018.43
2017-05-22T07:41:21.121Z,1018.41
2017-05-22T07:42:21.058Z,1018.38
2017-05-22T07:43:20.996Z,1018.38
2017-05-22T07:44:20.937Z,1018.34
2017-05-22T07:45:20.873Z,1018.35
2017-05-22T07:46:20.811Z,1018.31
2017-05-22T07:47:20.752Z,1018.27
2017-05-22T07:48:20.687Z,1018.3
2017-05-22T07:49:20.624Z,1018.31
2017-05-22T07:50:20.563Z,1018.28
2017-05-22T07:51:20.501Z,1018.27
2017-05-22T07:52:20.440Z,1018.22
2017-05-22T07:53:20.377Z,1018.23
2017-05-22T07:54:20.318Z,1018.23
2017-05-22T07:55:20.255Z,1018.23
2017-05-22T07:56:20.192Z,1018.21
2017-05-22T07:57:20.129Z,1018.22
2017-05-22T07:58:20.068Z,1018.2
2017-05-22T07:59:20.027Z,1018.19
2017-05-22T08:00:19.943Z,1018.2
2017-05-22T08:01:19.882Z,1018.21
2017-05-22T08:02:19.820Z,1018.2
2017-05-22T08:03:19.758Z,1018.19
2017-05-22T08:04:19.696Z,1018.19
2017-05-22T08:05:19.634Z,1018.16
2017-05-22T08:06:19.571Z,1018.13
2017-05-22T08:07:19.511Z,1018.16
2017-05-22T08:08:19.447Z,1018.15
2017-05-22T08:09:19.386Z,1018.15
2017-05-22T08:10:19.324Z,1018.16
2017-05-22T08:11:19.262Z,1018.13
2017-05-22T08:12:19.200Z,1018.13
2017-05-22T08:13:19.138Z,1018.14
2017-05-22T08:14:19.075Z,1018.11
2017-05-22T08:15:19.015Z,1018.12
2017-05-22T08:16:18.951Z,1018.09
2017-05-22T08:17:18.890Z,1018.09
2017-05-22T08:18:18.829Z,1018.08
2017-05-22T08:19:18.765Z,1018.13
2017-05-22T08:20:18.704Z,1018.12
2017-05-22T08:21:18.644Z,1018.11
2017-05-22T08:22:18.578Z,1018.1
2017-05-22T08:23:18.517Z,1018.06
2017-05-22T08:24:18.457Z,1018.07
2017-05-22T08:25:18.396Z,1018.02
2017-05-22T08:26:18.331Z,1018.03
2017-05-22T08:27:18.291Z,1018.04
2017-05-22T08:28:18.208Z,1018.03
2017-05-22T08:29:18.146Z,1018.01
2017-05-22T08:30:18.085Z,1018.03
2017-05-22T08:31:18.024Z,1017.99
2017-05-22T08:32:17.961Z,1017.96
2017-05-22T08:33:17.898Z,1017.99
2017-05-22T08:34:17.838Z,1017.94
2017-05-22T08:35:17.776Z,1017.95
2017-05-22T08:36:17.714Z,1017.95
2017-05-22T08:37:17.654Z,1017.94
2017-05-22T08:38:17.589Z,1017.95
2017-05-22T08:39:17.528Z,1017.9
2017-05-22T08:40:17.465Z,1017.89
2017-05-22T08:41:17.403Z,1017.87
2017-05-22T08:42:17.345Z,1017.84
2017-05-22T08:43:17.281Z,1017.88
2017-05-22T08:44:17.218Z,1017.84
2017-05-22T08:45:17.156Z,1017.87
2017-05-22T08:46:17.094Z,1017.83
2017-05-22T08:47:17.032Z,1017.85
2017-05-22T08:48:16.971Z,1017.85
2017-05-22T08:49:16.908Z,1017.87
2017-05-22T08:50:16.847Z,1017.84
2017-05-22T08:51:16.784Z,1017.83
2017-05-22T08:52:16.723Z,1017.83
2017-05-22T08:53:16.661Z,1017.84
2017-05-22T08:54:16.600Z,1017.84
2017-05-22T08:55:16.537Z,1017.83
2017-05-22T08:56:16.475Z,1017.84
2017-05-22T08:57:16.414Z,1017.81
2017-05-22T08:58:16.365Z,1017.81
2017-05-22T08:59:16.290Z,1017.81
2017-05-22T09:00:16.229Z,1017.81
2017-05-22T09:01:16.167Z,1017.78
2017-05-22T09:02:16.105Z,1017.81
2017-05-22T09:03:16.044Z,1017.76
2017-05-22T09:04:15.982Z,1017.8
2017-05-22T09:05:15.921Z,1017.76
2017-05-22T09:06:15.858Z,1017.74
2017-05-22T09:07:15.797Z,1017.71
2017-05-22T09:08:15.734Z,1017.7
2017-05-22T09:09:15.678Z,1017.7
2017-05-22T09:10:15.611Z,1017.69
2017-05-22T09:11:15.550Z,1017.72
2017-05-22T09:12:15.488Z,1017.71
2017-05-22T09:13:15.427Z,1017.66
2017-05-22T09:14:15.366Z,1017.68
2017-05-22T09:15:15.306Z,1017.67
2017-05-22T09:16:15.243Z,1017.65
2017-05-22T09:17:15.181Z,1017.65
2017-05-22T09:18:15.119Z,1017.68
2017-05-22T09:19:15.058Z,1017.66
2017-05-22T09:20:14.998Z,1017.63
2017-05-22T09:21:14.937Z,1017.65
2017-05-22T09:22:14.877Z,1017.67
2017-05-22T09:23:14.812Z,1017.68
2017-05-22T09:24:14.753Z,1017.64
2017-05-22T09:25:14.689Z,1017.65
2017-05-22T09:26:14.628Z,1017.63
2017-05-22T09:27:14.567Z,1017.65
2017-05-22T09:28:14.505Z,1017.63
2017-05-22T09:29:14.443Z,1017.65
2017-05-22T09:30:14.382Z,1017.64
2017-05-22T09:31:14.322Z,1017.62
2017-05-22T09:32:14.258Z,1017.59
2017-05-22T09:33:14.198Z,1017.6
2017-05-22T09:34:14.138Z,1017.58
2017-05-22T09:35:14.074Z,1017.57
2017-05-22T09:36:14.016Z,1017.57
2017-05-22T09:37:13.953Z,1017.58
2017-05-22T09:38:13.891Z,1017.56
2017-05-22T09:39:13.830Z,1017.56
2017-05-22T09:40:13.768Z,1017.55
2017-05-22T09:41:13.708Z,1017.53
2017-05-22T09:42:13.647Z,1017.53
2017-05-22T09:43:13.586Z,1017.49
2017-05-22T09:44:13.525Z,1017.44
2017-05-22T09:45:13.462Z,1017.45
2017-05-22T09:46:13.402Z,1017.45
2017-05-22T09:47:13.341Z,1017.41
2017-05-22T09:48:13.277Z,1017.43
2017-05-22T09:49:13.222Z,1017.44
2017-05-22T09:50:13.154Z,1017.42
2017-05-22T09:51:13.096Z,1017.41
2017-05-22T09:52:13.034Z,1017.38
2017-05-22T09:53:12.974Z,1017.36
2017-05-22T09:54:12.912Z,1017.35
2017-05-22T09:55:12.850Z,1017.33
2017-05-22T09:56:12.789Z,1017.33
2017-05-22T09:57:12.726Z,1017.36
2017-05-22T09:58:12.667Z,1017.33
2017-05-22T09:59:12.605Z,1017.32
2017-05-22T10:00:12.545Z,1017.25
2017-05-22T10:01:12.482Z,1017.3
2017-05-22T10:02:12.423Z,1017.25
2017-05-22T10:03:12.361Z,1017.29
2017-05-22T10:04:12.300Z,1017.29
2017-05-22T10:05:12.238Z,1017.26
2017-05-22T10:06:12.178Z,1017.22
2017-05-22T10:07:12.117Z,1017.2
2017-05-22T10:08:12.056Z,1017.19
2017-05-22T10:09:11.993Z,1017.24
2017-05-22T10:10:11.933Z,1017.24
2017-05-22T10:11:11.871Z,1017.21
2017-05-22T10:12:11.810Z,1017.18
2017-05-22T10:13:11.749Z,1017.18
2017-05-22T10:14:11.690Z,1017.15
2017-05-22T10:15:11.626Z,1017.13
2017-05-22T10:16:11.565Z,1017.11
2017-05-22T10:17:11.504Z,1017.1
2017-05-22T10:18:11.442Z,1017.11
2017-05-22T10:19:11.382Z,1017.18
2017-05-22T10:20:11.320Z,1017.16
2017-05-22T10:21:11.260Z,1017.18
2017-05-22T10:22:11.199Z,1017.16
2017-05-22T10:23:11.136Z,1017.14
2017-05-22T10:24:11.076Z,1017.15
2017-05-22T10:25:11.015Z,1017.19
2017-05-22T10:26:10.953Z,1017.18
2017-05-22T10:27:10.899Z,1017.17
2017-05-22T10:28:10.832Z,1017.18
2017-05-22T10:29:10.770Z,1017.18
2017-05-22T10:30:10.708Z,1017.2
2017-05-22T10:31:10.648Z,1017.11
2017-05-22T10:32:10.587Z,1017.12
2017-05-22T10:33:10.526Z,1017.09
2017-05-22T10:34:10.463Z,1017.08
2017-05-22T10:35:10.402Z,1017.05
2017-05-22T10:36:10.342Z,1017.04
2017-05-22T10:37:10.280Z,1017.04
2017-05-22T10:38:10.218Z,1017.09
2017-05-22T10:39:10.159Z,1017.06
2017-05-22T10:40:10.100Z,1017.06
2017-05-22T10:41:10.036Z,1017.06
2017-05-22T10:42:09.975Z,1017
2017-05-22T10:43:09.915Z,1017.01
2017-05-22T10:44:09.853Z,1017.02
2017-05-22T10:45:09.792Z,1017.02
2017-05-22T10:46:09.733Z,1017.01
2017-05-22T10:47:09.670Z,1017
2017-05-22T10:48:09.608Z,1017.03
2017-05-22T10:49:09.549Z,1017
2017-05-22T10:50:09.488Z,1016.99
2017-05-22T10:51:09.426Z,1016.96
2017-05-22T10:52:09.364Z,1016.99
2017-05-22T10:53:09.305Z,1016.95
2017-05-22T10:54:09.249Z,1016.92
2017-05-22T10:55:09.185Z,1016.9
2017-05-22T10:56:09.122Z,1016.9
2017-05-22T10:57:09.061Z,1016.91
2017-05-22T10:58:09.001Z,1016.85
2017-05-22T10:59:08.939Z,1016.86
2017-05-22T11:00:08.878Z,1016.86
2017-05-22T11:01:08.817Z,1016.87
2017-05-22T11:02:08.757Z,1016.89
2017-05-22T11:03:08.695Z,1016.84
2017-05-22T11:04:08.634Z,1016.8
2017-05-22T11:05:08.573Z,1016.82
2017-05-22T11:06:08.515Z,1016.78
2017-05-22T11:07:08.487Z,1016.71
2017-05-22T11:08:08.406Z,1016.69
2017-05-22T11:09:08.363Z,1016.72
2017-05-22T11:10:08.270Z,1016.71
2017-05-22T11:11:08.209Z,1016.73
2017-05-22T11:12:08.149Z,1016.7
2017-05-22T11:13:08.088Z,1016.69
2017-05-22T11:14:08.037Z,1016.69
2017-05-22T11:15:08.216Z,1016.66
2017-05-22T11:16:07.906Z,1016.66
2017-05-22T11:17:07.845Z,1016.64
2017-05-22T11:18:07.785Z,1016.59
2017-05-22T11:19:07.762Z,1016.57
2017-05-22T11:20:07.667Z,1016.6
2017-05-22T11:21:07.599Z,1016.58
2017-05-22T11:22:07.539Z,1016.58
2017-05-22T11:23:07.480Z,1016.55
2017-05-22T11:24:07.419Z,1016.53
2017-05-22T11:25:07.355Z,1016.55
2017-05-22T11:26:07.296Z,1016.54
2017-05-22T11:27:07.234Z,1016.54
2017-05-22T11:28:07.173Z,1016.54
2017-05-22T11:29:07.111Z,1016.52
2017-05-22T11:30:07.052Z,1016.52
2017-05-22T11:31:06.990Z,1016.51
2017-05-22T11:32:06.928Z,1016.49
2017-05-22T11:33:06.867Z,1016.49
2017-05-22T11:34:06.821Z,1016.52
2017-05-22T11:35:06.746Z,1016.47
2017-05-22T11:36:06.685Z,1016.49
2017-05-22T11:37:06.624Z,1016.43
2017-05-22T11:38:06.563Z,1016.38
2017-05-22T11:39:06.503Z,1016.38
2017-05-22T11:40:06.441Z,1016.4
2017-05-22T11:41:06.381Z,1016.38
2017-05-22T11:42:06.320Z,1016.38
2017-05-22T11:43:06.259Z,1016.37
2017-05-22T11:44:06.197Z,1016.38
2017-05-22T11:45:06.137Z,1016.33
2017-05-22T11:46:06.076Z,1016.33
2017-05-22T11:47:06.014Z,1016.35
2017-05-22T11:48:05.955Z,1016.38
2017-05-22T11:49:05.891Z,1016.37
2017-05-22T11:50:05.831Z,1016.36
2017-05-22T11:51:05.769Z,1016.34
2017-05-22T11:52:05.710Z,1016.34
2017-05-22T11:53:05.649Z,1016.36
2017-05-22T11:54:05.587Z,1016.35
2017-05-22T11:55:05.526Z,1016.34
2017-05-22T11:56:05.464Z,1016.33
2017-05-22T11:57:05.405Z,1016.32
2017-05-22T11:58:05.343Z,1016.3
2017-05-22T11:59:05.281Z,1016.31
2017-05-22T12:00:05.238Z,1016.33
2017-05-22T12:01:05.159Z,1016.29
2017-05-22T12:02:05.098Z,1016.27
2017-05-22T12:03:05.037Z,1016.25
2017-05-22T12:04:04.976Z,1016.27
2017-05-22T12:05:04.916Z,1016.23
2017-05-22T12:06:04.855Z,1016.22
2017-05-22T12:07:04.793Z,1016.24
2017-05-22T12:08:04.736Z,1016.2
2017-05-22T12:09:04.672Z,1016.19
2017-05-22T12:10:04.612Z,1016.2
2017-05-22T12:11:04.550Z,1016.16